Terminal Aerodrome Forecast
Issued by NWS Louisville, KY

Home | Current Version | Previous Version | Text Only | Print | Product List | Glossary On
Versions: 1 2 3 4 5 6 7 8 9 10 11 12 13
000
FTUS43 KLMK 252300
TAFBWG
TAF
KBWG 252339Z 2600/2624 17009KT P6SM BKN028
     FM260100 17008KT P6SM SCT025 BKN250
     FM261600 20018G25KT P6SM VCTS BKN035CB
     FM262200 21015G22KT P6SM SCT040 BKN250=

USA.gov is the U.S. government's official web portal to all federal, state and local government web resources and services.